Time;durP1;ratioP1;P1;durP2;ratioP2;P2;SDS_P1;SDS_P2;PMS_P1;PMS_P2;Temp;Humidity;BMP_temperature;BMP_pressure;BME280_temperature;BME280_humidity;BME280_pressure;Samples;Min_cycle;Max_cycle;Signal;HPM_P1;HPM_P2
2023/01/05 00:01:56;;;;;;;1.95;1.40;;;11.00;99.90;;;10.17;100.00;100962.03;5028436;28;20046;-76
2023/01/05 00:04:23;;;;;;;3.60;1.48;;;11.30;99.90;;;10.18;100.00;100955.88;5027393;28;20098;-76
2023/01/05 00:06:51;;;;;;;1.90;1.15;;;11.00;99.90;;;10.16;100.00;100948.00;5028131;28;20056;-76
2023/01/05 00:09:20;;;;;;;1.67;1.35;;;11.10;99.90;;;10.15;100.00;100950.66;5011996;28;20056;-76
2023/01/05 00:23:08;;;;;;;1.20;1.10;;;11.00;99.90;;;10.15;100.00;100969.94;5013054;28;20123;-76
2023/01/05 00:25:40;;;;;;;5.35;1.27;;;11.70;99.90;;;10.21;100.00;100959.31;5010878;28;20049;-76
2023/01/05 00:28:07;;;;;;;2.95;1.27;;;11.10;99.90;;;10.21;100.00;100955.84;5027394;28;20045;-76
2023/01/05 00:30:44;;;;;;;1.65;1.27;;;12.10;99.90;;;10.20;100.00;100936.53;5010898;28;20060;-76
2023/01/05 00:33:16;;;;;;;1.52;1.08;;;11.00;99.90;;;10.19;100.00;100934.81;5010779;28;20049;-75
2023/01/05 00:35:43;;;;;;;1.48;1.30;;;11.10;99.90;;;10.23;100.00;100932.16;5027360;28;20144;-76
2023/01/05 00:38:11;;;;;;;1.70;1.20;;;11.90;99.90;;;10.21;100.00;100932.16;5028954;28;20077;-76
2023/01/05 00:40:38;;;;;;;2.70;1.30;;;11.20;99.90;;;10.22;100.00;100926.03;5027591;28;20436;-76
2023/01/05 00:43:05;;;;;;;2.78;1.30;;;12.20;99.90;;;10.20;100.00;100914.66;5016673;28;20517;-75
2023/01/05 00:45:33;;;;;;;1.40;1.30;;;11.10;99.90;;;10.22;100.00;100923.38;5046818;28;20662;-76
2023/01/05 00:48:00;;;;;;;1.90;1.52;;;11.00;99.90;;;10.18;100.00;100921.69;5048293;28;20045;-75
2023/01/05 00:50:27;;;;;;;2.15;1.33;;;11.10;99.90;;;10.14;100.00;100885.78;5030703;28;20041;-76
2023/01/05 00:52:54;;;;;;;2.75;1.52;;;11.20;99.90;;;10.17;100.00;100888.41;5030300;28;20045;-76
2023/01/05 00:55:21;;;;;;;2.33;1.30;;;11.50;99.90;;;10.15;100.00;100895.44;5046742;28;20041;-76
2023/01/05 00:57:48;;;;;;;1.45;1.35;;;12.00;99.90;;;10.14;100.00;100891.94;5030233;28;20046;-76
2023/01/05 01:00:19;;;;;;;1.85;1.63;;;11.50;99.90;;;10.17;100.00;100876.13;5039071;28;20050;-75
2023/01/05 01:02:51;;;;;;;1.70;1.60;;;11.00;99.90;;;10.15;100.00;100880.53;5010283;28;20562;-75
2023/01/05 01:05:18;;;;;;;1.13;1.02;;;11.00;99.90;;;10.15;100.00;100905.97;5010489;28;20502;-76
2023/01/05 01:07:47;;;;;;;1.70;1.48;;;11.30;99.90;;;10.14;100.00;100884.06;5010688;28;20050;-76
2023/01/05 01:10:14;;;;;;;2.20;1.40;;;11.00;99.90;;;10.15;100.00;100906.81;5027151;28;20053;-76
2023/01/05 01:12:41;;;;;;;1.30;1.20;;;11.00;99.90;;;10.13;100.00;100884.94;4994106;28;20045;-75
2023/01/05 01:15:09;;;;;;;2.63;1.38;;;11.00;99.90;;;10.13;100.00;100905.09;5009887;28;20042;-75
2023/01/05 01:17:37;;;;;;;2.33;1.60;;;11.00;99.90;;;10.11;100.00;100883.22;5026733;28;20099;-75
2023/01/05 01:20:05;;;;;;;2.47;1.52;;;11.00;99.90;;;10.07;100.00;100903.44;5010127;28;20056;-75
2023/01/05 01:22:35;;;;;;;2.25;1.50;;;11.00;99.90;;;10.13;100.00;100891.94;5025962;28;20069;-76
2023/01/05 01:25:02;;;;;;;;;;;10.90;99.90;;;10.11;100.00;100897.25;5026800;28;20045;-76
2023/01/05 01:27:30;;;;;;;2.45;1.30;;;11.00;99.90;;;10.12;100.00;100912.13;5010426;28;19925;-76
2023/01/05 01:30:00;;;;;;;1.02;1.02;;;10.90;99.90;;;10.17;100.00;100912.94;5008590;28;20048;-76
2023/01/05 01:32:27;;;;;;;1.30;1.20;;;11.00;99.90;;;10.20;100.00;100912.03;5026590;28;20434;-76
2023/01/05 01:34:54;;;;;;;1.90;1.27;;;11.00;99.90;;;10.19;100.00;100910.28;5011468;28;20056;-76
2023/01/05 01:37:21;;;;;;;1.67;1.30;;;11.00;99.90;;;10.15;100.00;100906.81;4994584;28;20449;-76
2023/01/05 01:39:51;;;;;;;1.63;1.25;;;11.00;99.90;;;10.19;100.00;100913.78;5008657;28;20128;-76
2023/01/05 01:42:21;;;;;;;1.55;1.15;;;11.00;99.90;;;10.15;100.00;100909.44;5013487;28;20128;-75
2023/01/05 01:44:59;;;;;;;2.47;1.40;;;11.00;99.90;;;10.21;100.00;100909.34;5026396;28;20124;-75
2023/01/05 01:47:42;;;;;;;2.42;1.40;;;12.00;99.90;;;10.23;100.00;100911.13;4994886;28;20054;-76
2023/01/05 01:50:24;;;;;;;1.65;1.25;;;11.00;99.90;;;10.26;100.00;100909.31;4994258;28;20057;-76
2023/01/05 01:53:00;;;;;;;1.73;1.20;;;11.10;99.90;;;10.22;100.00;100915.50;4994297;28;20057;-76
2023/01/05 01:55:28;;;;;;;2.38;1.10;;;11.10;99.90;;;10.23;100.00;100921.66;5010856;28;20538;-76
2023/01/05 01:57:56;;;;;;;1.20;1.10;;;11.10;99.90;;;10.24;100.00;100915.50;4994481;28;20092;-76
2023/01/05 02:00:23;;;;;;;1.33;1.23;;;11.10;99.90;;;10.20;100.00;100904.13;5000098;28;20042;-76
2023/01/05 02:02:54;;;;;;;1.17;1.08;;;11.10;99.90;;;10.19;100.00;100899.78;5025922;28;20053;-76
2023/01/05 02:05:28;;;;;;;1.83;1.23;;;11.00;99.90;;;10.19;100.00;100905.88;5009537;28;20060;-76
2023/01/05 02:07:55;;;;;;;1.15;1.05;;;11.00;99.90;;;10.21;100.00;100905.88;5013070;28;20073;-76
2023/01/05 02:10:54;;;;;;;1.40;1.30;;;11.40;99.90;;;10.20;100.00;100919.91;4996909;28;20135;-76
2023/01/05 02:14:10;;;;;;;1.20;1.10;;;11.00;99.90;;;10.16;100.00;100908.56;5037030;28;20045;-76
2023/01/05 02:17:06;;;;;;;1.40;1.30;;;11.00;99.90;;;10.15;100.00;100914.72;5030264;28;20079;-76
2023/01/05 02:20:39;;;;;;;1.05;1.02;;;11.90;99.90;;;10.15;100.00;100914.72;5048884;28;20706;-76
2023/01/05 02:23:47;;;;;;;1.35;1.10;;;11.00;99.90;;;10.12;100.00;100924.41;5029614;28;20187;-76
2023/01/05 02:27:07;;;;;;;0.93;0.93;;;10.90;99.90;;;10.14;100.00;100898.94;5032890;28;20152;-76
2023/01/05 02:30:29;;;;;;;0.93;0.90;;;11.00;99.90;;;10.18;100.00;100919.06;5048014;28;20084;-76
2023/01/05 02:33:25;;;;;;;1.00;1.00;;;11.00;99.90;;;10.21;100.00;100897.97;5016792;28;20149;-75
2023/01/05 02:36:10;;;;;;;1.20;1.00;;;11.00;99.90;;;10.23;100.00;100906.72;5018112;28;20403;-75
2023/01/05 02:39:11;;;;;;;1.45;0.95;;;11.00;99.90;;;10.24;100.00;100895.31;5029263;28;20049;-76
2023/01/05 02:42:07;;;;;;;1.83;0.90;;;11.00;99.90;;;10.27;100.00;100902.28;5030113;28;20057;-76
2023/01/05 02:44:34;;;;;;;1.55;1.20;;;11.40;99.90;;;10.28;100.00;100889.09;5031832;28;20049;-76
2023/01/05 02:47:26;;;;;;;1.20;1.10;;;11.50;99.90;;;10.32;100.00;100892.56;5032426;28;20049;-76
2023/01/05 02:50:04;;;;;;;0.80;0.80;;;11.10;99.90;;;10.32;100.00;100897.81;5048438;28;20068;-76
2023/01/05 02:52:53;;;;;;;1.27;1.15;;;11.10;99.90;;;10.38;100.00;100889.88;5048744;28;20053;-76
2023/01/05 02:55:34;;;;;;;1.30;1.00;;;11.90;99.90;;;10.44;100.00;100899.44;5034234;28;20056;-76
2023/01/05 02:59:06;;;;;;;1.23;1.13;;;11.20;99.90;;;10.46;100.00;100906.41;5033947;28;20048;-75
2023/01/05 03:01:50;;;;;;;1.20;1.05;;;11.20;99.90;;;10.49;100.00;100909.00;5029163;28;20065;-76
2023/01/05 03:04:39;;;;;;;1.35;1.10;;;11.20;99.90;;;10.54;100.00;100898.41;5011901;28;20099;-76
2023/01/05 03:07:14;;;;;;;1.10;1.00;;;11.30;99.90;;;10.53;100.00;100887.91;5012676;28;20052;-76
2023/01/05 03:09:44;;;;;;;3.05;1.25;;;11.30;99.90;;;10.57;100.00;100895.72;5012535;28;20307;-76
2023/01/05 03:15:21;;;;;;;3.85;1.10;;;11.40;99.90;;;10.60;100.00;100881.66;5008573;28;20064;-76
2023/01/05 03:18:03;;;;;;;0.77;0.77;;;11.40;99.90;;;10.58;100.00;100886.94;5008662;28;20049;-76
2023/01/05 03:20:35;;;;;;;1.10;1.00;;;11.40;99.90;;;10.56;100.00;100893.13;5025175;28;20042;-76
2023/01/05 03:35:29;;;;;;;2.00;1.30;;;11.40;99.90;;;10.62;100.00;100903.56;4965636;28;20055;-70
2023/01/05 03:38:06;;;;;;;0.90;0.90;;;11.40;99.90;;;10.62;100.00;100895.66;4968100;28;20043;-70
2023/01/05 03:40:37;;;;;;;1.15;1.05;;;11.40;99.90;;;10.62;100.00;100903.56;4965528;28;20134;-70
2023/01/05 03:43:06;;;;;;;1.05;0.90;;;12.20;99.90;;;10.64;100.00;100893.88;4960981;28;20109;-70
2023/01/05 03:45:44;;;;;;;1.00;0.90;;;12.30;99.90;;;10.63;100.00;100895.66;4972649;28;20050;-69
2023/01/05 03:48:19;;;;;;;0.90;0.90;;;11.50;99.90;;;10.60;100.00;100905.34;4958739;28;20097;-70
2023/01/05 03:50:47;;;;;;;0.90;0.90;;;11.40;99.90;;;10.61;100.00;100904.44;4972542;28;20043;-70
2023/01/05 03:53:17;;;;;;;;;;;11.40;99.90;;;10.56;100.00;100906.28;4955846;28;20051;-70
2023/01/05 03:55:45;;;;;;;0.90;0.90;;;11.20;99.90;;;10.55;100.00;100907.19;4987884;28;19975;-70
2023/01/05 03:58:13;;;;;;;1.00;0.80;;;11.40;99.90;;;10.51;100.00;100901.09;4988129;28;20042;-70
2023/01/05 04:00:44;;;;;;;0.80;0.80;;;12.50;99.90;;;10.47;100.00;100905.53;4957745;28;20154;-70
2023/01/05 04:03:13;;;;;;;0.98;0.90;;;11.30;99.90;;;10.54;100.00;100911.56;4968514;28;20101;-70
2023/01/05 04:05:41;;;;;;;1.42;0.90;;;11.40;99.90;;;10.55;100.00;100921.19;4968812;28;20046;-70
2023/01/05 04:08:10;;;;;;;1.45;0.90;;;11.40;99.90;;;10.56;100.00;100922.94;4984595;28;20059;-70
2023/01/05 04:10:41;;;;;;;1.23;1.00;;;11.40;99.90;;;10.60;100.00;100929.88;4968762;28;20418;-70
2023/01/05 04:13:08;;;;;;;1.15;1.00;;;11.40;99.90;;;10.60;100.00;100919.34;4972257;28;20046;-70
2023/01/05 04:15:36;;;;;;;0.90;0.90;;;12.40;99.90;;;10.60;100.00;100927.25;4988549;28;20050;-70
2023/01/05 04:18:05;;;;;;;1.08;0.90;;;11.40;99.90;;;10.58;100.00;100933.44;4988182;28;20132;-70
2023/01/05 04:20:32;;;;;;;0.80;0.80;;;11.40;99.90;;;10.61;100.00;100942.19;4971825;28;20089;-70
2023/01/05 04:23:00;;;;;;;0.80;0.80;;;11.40;99.90;;;10.65;100.00;100948.25;4971638;28;20050;-70
2023/01/05 04:25:29;;;;;;;0.98;0.90;;;11.40;99.90;;;10.70;100.00;100946.44;4971712;28;20057;-70
2023/01/05 04:28:03;;;;;;;1.23;0.88;;;11.40;99.90;;;10.68;100.00;100945.56;4973022;28;20060;-70
2023/01/05 04:30:32;;;;;;;0.80;0.80;;;11.50;99.90;;;10.71;100.00;100936.75;4961620;28;20053;-69
2023/01/05 04:33:00;;;;;;;2.15;0.80;;;11.50;99.90;;;10.71;100.00;100947.28;4984046;28;20047;-70
2023/01/05 04:35:29;;;;;;;0.80;0.80;;;11.50;99.90;;;10.77;100.00;100944.53;4968912;28;20105;-70
2023/01/05 04:37:57;;;;;;;1.88;1.00;;;11.50;99.90;;;10.78;100.00;100946.31;4968205;28;20043;-70
2023/01/05 04:40:24;;;;;;;1.30;0.73;;;11.60;99.90;;;10.83;100.00;100952.34;4985011;28;20113;-70
2023/01/05 04:42:53;;;;;;;2.25;0.80;;;11.60;99.90;;;10.87;100.00;100948.78;4970092;28;20490;-70
2023/01/05 04:45:20;;;;;;;0.73;0.73;;;11.70;99.90;;;10.89;100.00;100954.03;4970019;28;20050;-70
2023/01/05 04:47:48;;;;;;;2.10;1.00;;;11.70;99.90;;;10.92;100.00;100969.78;4953988;28;20086;-70
2023/01/05 04:50:18;;;;;;;0.93;0.90;;;11.80;99.90;;;10.98;100.00;100981.97;4969947;28;20050;-70
2023/01/05 04:52:47;;;;;;;2.03;1.00;;;11.80;99.90;;;11.02;100.00;100981.91;4938287;28;20074;-70
2023/01/05 04:55:17;;;;;;;1.65;1.13;;;11.70;99.90;;;11.00;100.00;100990.72;4954015;28;20144;-70
2023/01/05 04:57:45;;;;;;;1.65;0.93;;;11.80;99.90;;;10.97;100.00;100991.63;4969523;28;20531;-69
2023/01/05 05:00:15;;;;;;;1.13;1.00;;;12.00;99.90;;;11.00;100.00;101002.09;4949658;28;20054;-70
2023/01/05 05:02:43;;;;;;;0.80;0.80;;;11.80;99.90;;;11.00;100.00;100998.63;4969909;28;20081;-70
2023/01/05 05:05:13;;;;;;;1.20;1.10;;;11.70;99.90;;;10.96;100.00;101008.31;4973788;28;20062;-70
2023/01/05 05:07:41;;;;;;;2.83;1.27;;;11.70;99.90;;;10.95;100.00;101005.72;4957401;28;20584;-70
2023/01/05 05:10:10;;;;;;;2.72;2.13;;;11.70;99.90;;;10.95;100.00;101009.22;4974213;28;20089;-69
2023/01/05 05:12:40;;;;;;;1.40;1.17;;;11.90;99.90;;;10.98;100.00;101021.47;4973723;28;20046;-70
2023/01/05 05:15:08;;;;;;;2.83;1.67;;;11.80;99.90;;;10.96;100.00;101005.69;4971732;28;20133;-70
2023/01/05 05:17:39;;;;;;;5.85;2.58;;;11.80;99.90;;;10.97;100.00;101023.22;4972446;28;20142;-70
2023/01/05 05:20:11;;;;;;;6.00;3.00;;;11.70;99.90;;;10.96;100.00;101024.09;4971674;28;20078;-70
2023/01/05 05:22:38;;;;;;;5.30;3.03;;;11.70;99.90;;;10.94;100.00;101030.31;4971787;28;20098;-70
2023/01/05 05:25:07;;;;;;;6.75;3.00;;;12.30;99.90;;;10.95;100.00;101024.16;4971427;28;20093;-70
2023/01/05 05:27:39;;;;;;;8.45;3.00;;;11.70;99.90;;;10.95;100.00;101025.00;4972646;28;20139;-70
2023/01/05 05:30:07;;;;;;;10.00;2.47;;;11.70;99.90;;;10.94;100.00;101023.28;4971738;28;20463;-70
2023/01/05 05:32:34;;;;;;;12.50;4.07;;;11.70;99.90;;;10.94;100.00;101025.91;4971898;28;20054;-70
2023/01/05 05:35:09;;;;;;;10.32;2.80;;;12.20;99.90;;;11.13;100.00;101025.63;4970978;28;20141;-70
2023/01/05 05:37:37;;;;;;;11.07;3.10;;;11.80;98.80;;;11.09;100.00;101023.94;4971839;28;20046;-70
2023/01/05 05:40:04;;;;;;;13.02;4.05;;;11.90;99.40;;;11.10;100.00;101020.41;4972539;28;20055;-70
2023/01/05 05:42:32;;;;;;;9.38;3.55;;;11.90;98.40;;;11.07;100.00;101023.94;4972405;28;20054;-70
2023/01/05 05:44:59;;;;;;;12.98;3.95;;;11.90;98.60;;;11.00;100.00;101025.78;4990629;28;20545;-70
2023/01/05 05:47:26;;;;;;;8.52;3.28;;;11.90;98.60;;;10.99;100.00;101031.09;4992842;28;20506;-70
2023/01/05 05:49:54;;;;;;;13.45;4.28;;;11.80;98.40;;;10.99;100.00;101021.44;4991961;28;20054;-70
2023/01/05 05:52:21;;;;;;;11.43;3.83;;;11.90;98.20;;;10.95;100.00;101038.16;4976834;28;20061;-70
2023/01/05 05:54:48;;;;;;;15.43;4.88;;;11.80;98.20;;;10.96;100.00;101036.41;4974468;28;20042;-71
2023/01/05 05:57:16;;;;;;;6.93;3.10;;;11.70;98.40;;;10.97;100.00;101036.38;4990547;28;20089;-69
2023/01/05 05:59:43;;;;;;;10.40;4.10;;;12.10;98.10;;;10.98;100.00;101046.03;4987824;28;20047;-68
2023/01/05 06:02:10;;;;;;;13.35;3.95;;;11.80;97.90;;;11.02;100.00;101042.47;4952187;28;20066;-69
2023/01/05 06:04:37;;;;;;;12.57;4.22;;;11.40;97.50;;;11.05;100.00;101057.34;4954798;28;20050;-68
2023/01/05 06:07:04;;;;;;;13.05;4.32;;;11.80;97.60;;;11.10;100.00;101059.91;4955202;28;20054;-68
2023/01/05 06:09:31;;;;;;;17.55;4.05;;;11.90;97.40;;;11.05;100.00;101062.59;4970827;28;20054;-68
2023/01/05 06:11:58;;;;;;;12.43;4.80;;;11.90;97.60;;;11.05;100.00;101058.22;4970154;28;20046;-68
2023/01/05 06:14:26;;;;;;;10.55;2.83;;;11.90;97.60;;;11.06;100.00;101062.59;4974990;28;20471;-69
2023/01/05 06:16:53;;;;;;;24.63;4.20;;;11.90;97.60;;;11.12;100.00;101058.13;4952993;28;20098;-68
2023/01/05 06:19:20;;;;;;;13.13;3.50;;;11.90;97.50;;;11.10;100.00;101052.88;4967933;28;20043;-68
2023/01/05 06:21:47;;;;;;;10.88;2.95;;;11.90;97.60;;;11.16;100.00;101055.41;4986708;28;20050;-69
2023/01/05 06:24:14;;;;;;;9.55;2.75;;;11.90;97.30;;;11.19;100.00;101044.81;4978628;28;20061;-67
2023/01/05 06:26:41;;;;;;;11.05;3.38;;;12.30;97.40;;;11.24;100.00;101049.13;4996713;28;20058;-68
2023/01/05 06:29:08;;;;;;;12.60;2.60;;;12.00;96.90;;;11.26;100.00;101050.00;4976505;28;20058;-68
2023/01/05 06:31:35;;;;;;;13.35;3.78;;;12.10;96.60;;;11.30;100.00;101065.72;4987691;28;20130;-68
2023/01/05 06:34:02;;;;;;;8.38;3.10;;;12.20;96.60;;;11.28;100.00;101054.34;4970227;28;20051;-68
2023/01/05 06:36:29;;;;;;;15.32;3.42;;;12.10;96.30;;;11.27;100.00;101054.38;4986308;28;20074;-67
2023/01/05 06:38:57;;;;;;;9.55;3.45;;;12.10;96.30;;;11.28;100.00;101056.13;4971450;28;20042;-68
2023/01/05 06:41:24;;;;;;;11.43;2.60;;;13.00;96.60;;;11.27;100.00;101064.94;4986210;28;20759;-68
2023/01/05 06:43:51;;;;;;;14.18;3.65;;;12.20;96.50;;;11.29;100.00;101052.59;4966098;28;20038;-68
2023/01/05 06:46:18;;;;;;;9.25;2.75;;;12.10;96.30;;;11.28;100.00;101051.72;4973396;28;20065;-68
2023/01/05 06:48:45;;;;;;;13.65;4.45;;;12.10;96.40;;;11.25;100.00;101049.13;4989332;28;20753;-68
2023/01/05 06:51:12;;;;;;;14.05;3.17;;;12.10;96.60;;;11.26;100.00;101052.66;4973504;28;20461;-68
2023/01/05 06:53:39;;;;;;;10.05;2.90;;;12.10;96.80;;;11.27;100.00;101051.75;4973294;28;20046;-68
2023/01/05 06:56:06;;;;;;;10.50;4.35;;;12.10;97.00;;;11.28;100.00;101042.94;4989083;28;20079;-68
2023/01/05 06:58:34;;;;;;;12.68;3.22;;;12.10;97.00;;;11.25;100.00;101056.19;4990807;28;20050;-68
2023/01/05 07:01:01;;;;;;;14.70;4.53;;;12.30;97.30;;;11.22;100.00;101057.09;4958556;28;20106;-68
2023/01/05 07:03:28;;;;;;;12.85;4.47;;;12.10;97.50;;;11.21;100.00;101050.94;4985812;28;20078;-68
2023/01/05 07:05:55;;;;;;;16.75;5.70;;;12.00;97.70;;;11.16;100.00;101058.03;4969761;28;20597;-68
2023/01/05 07:08:22;;;;;;;14.15;4.13;;;12.00;97.80;;;11.17;100.00;101051.88;4953886;28;20043;-68
2023/01/05 07:10:49;;;;;;;13.77;3.80;;;12.00;97.70;;;11.13;100.00;101052.84;4953567;28;20142;-69
2023/01/05 07:13:16;;;;;;;14.13;4.30;;;12.00;97.70;;;11.11;100.00;101059.00;4969288;28;20069;-68
2023/01/05 07:15:43;;;;;;;10.27;3.42;;;12.10;97.90;;;11.14;100.00;101064.22;4953365;28;20101;-69
2023/01/05 07:18:11;;;;;;;9.23;4.15;;;11.90;97.90;;;11.09;100.00;101060.81;4969519;28;20043;-68
2023/01/05 07:20:38;;;;;;;17.33;4.13;;;11.90;98.00;;;11.04;100.00;101067.00;4969778;28;20047;-68
2023/01/05 07:23:05;;;;;;;12.20;3.90;;;12.10;98.20;;;11.05;100.00;101055.59;4969362;28;20047;-69
2023/01/05 07:25:32;;;;;;;11.80;4.03;;;11.80;98.10;;;11.06;100.00;101066.97;4953284;28;20154;-68
2023/01/05 07:27:59;;;;;;;16.65;4.60;;;12.30;98.20;;;11.07;100.00;101069.59;4969252;28;20628;-68
2023/01/05 07:30:26;;;;;;;22.13;7.70;;;12.30;98.20;;;11.05;100.00;101079.28;4952977;28;20054;-68
2023/01/05 07:33:00;;;;;;;13.93;3.83;;;11.80;98.10;;;11.10;100.00;101088.88;4970469;28;20868;-68
2023/01/05 07:35:27;;;;;;;19.50;4.63;;;11.90;98.10;;;11.14;100.00;101093.19;4968873;28;20046;-71
2023/01/05 07:37:56;;;;;;;23.00;11.38;;;11.90;98.00;;;11.12;100.00;101094.97;4953120;28;20654;-68
2023/01/05 07:40:23;;;;;;;16.45;4.28;;;11.90;98.20;;;11.12;100.00;101100.25;4968707;28;20057;-69
2023/01/05 07:42:54;;;;;;;13.00;3.08;;;11.90;98.20;;;11.12;100.00;101097.63;4972431;28;20058;-70
2023/01/05 07:45:21;;;;;;;11.10;3.40;;;11.90;98.00;;;11.13;100.00;101096.72;4972291;28;20451;-70
2023/01/05 07:47:48;;;;;;;13.82;3.75;;;11.90;98.00;;;11.11;100.00;101102.03;5004804;28;20062;-68
2023/01/05 07:50:15;;;;;;;11.80;3.83;;;11.90;98.00;;;11.14;100.00;101109.00;4988811;28;20398;-68
2023/01/05 07:52:42;;;;;;;12.93;4.40;;;11.90;98.00;;;11.15;100.00;101102.84;4988346;28;20054;-68
2023/01/05 07:55:09;;;;;;;8.65;3.35;;;11.90;98.00;;;11.12;100.00;101100.25;4988203;28;20497;-68
2023/01/05 07:57:36;;;;;;;12.07;3.30;;;11.90;98.00;;;11.11;100.00;101095.88;4972646;28;20042;-68
2023/01/05 08:00:05;;;;;;;14.45;4.88;;;12.00;98.00;;;11.15;100.00;101094.94;4949754;28;20061;-69
2023/01/05 08:02:37;;;;;;;15.40;4.25;;;11.90;97.80;;;11.17;100.00;101104.56;4969306;28;20104;-68
2023/01/05 08:05:05;;;;;;;15.45;3.72;;;12.00;97.80;;;11.20;100.00;101101.88;4968510;28;20055;-69
2023/01/05 08:07:33;;;;;;;9.30;3.55;;;12.00;97.80;;;11.24;100.00;101104.47;4970103;28;20070;-68
2023/01/05 08:15:32;;;;;;;14.85;3.65;;;12.10;97.90;;;11.20;100.00;101112.41;4988070;28;20043;-70
2023/01/05 08:18:00;;;;;;;12.57;3.22;;;12.00;97.90;;;11.16;100.00;101113.34;4987919;28;20447;-69
2023/01/05 08:20:27;;;;;;;15.90;4.00;;;11.90;98.00;;;11.13;100.00;101123.94;4987877;28;20112;-70
2023/01/05 08:22:54;;;;;;;10.40;3.45;;;12.40;98.20;;;11.13;100.00;101125.69;4971571;28;20050;-70
2023/01/05 08:25:22;;;;;;;12.88;3.50;;;11.90;98.30;;;11.13;100.00;101126.56;4987629;28;20073;-69
2023/01/05 08:27:49;;;;;;;12.07;3.40;;;12.00;98.20;;;11.12;100.00;101129.22;4987839;28;20077;-69
2023/01/05 08:30:16;;;;;;;14.07;4.25;;;12.80;98.50;;;11.10;100.00;101142.44;4976067;28;20709;-68
2023/01/05 08:32:43;;;;;;;13.10;4.00;;;11.90;98.30;;;11.12;100.00;101148.53;4949958;28;20051;-68
2023/01/05 08:35:11;;;;;;;10.88;3.88;;;12.10;98.40;;;11.20;100.00;101158.97;4949018;28;20566;-68
2023/01/05 08:37:39;;;;;;;14.80;4.80;;;12.00;98.30;;;11.23;100.00;101163.31;4949827;28;20138;-68
2023/01/05 08:40:08;;;;;;;13.45;4.47;;;12.00;98.30;;;11.25;100.00;101158.91;4949002;29;20158;-68
2023/01/05 08:42:35;;;;;;;21.08;5.07;;;12.00;98.30;;;11.25;100.00;101161.56;4953600;28;20126;-68
2023/01/05 08:45:03;;;;;;;11.52;4.55;;;12.00;98.20;;;11.21;100.00;101158.06;4987738;28;20465;-68
2023/01/05 08:47:30;;;;;;;17.75;4.07;;;12.00;98.00;;;11.24;100.00;101165.94;4987663;28;20506;-68
2023/01/05 08:49:58;;;;;;;16.00;5.05;;;12.00;98.10;;;11.25;100.00;101164.19;4988940;28;20046;-68
2023/01/05 08:52:25;;;;;;;15.38;3.97;;;12.00;98.00;;;11.29;100.00;101165.88;4971689;28;20097;-68
2023/01/05 08:54:52;;;;;;;16.23;5.68;;;12.10;98.00;;;11.26;100.00;101169.41;4987402;28;20054;-68
2023/01/05 08:57:19;;;;;;;14.25;4.22;;;12.00;98.00;;;11.30;100.00;101171.09;4988856;28;20556;-68
2023/01/05 08:59:45;;;;;;;17.10;4.57;;;12.10;97.90;;;11.31;100.00;101179.88;4966783;28;20089;-68
2023/01/05 09:02:13;;;;;;;16.95;5.88;;;12.10;97.80;;;11.31;100.00;101172.84;4952198;28;20285;-68
2023/01/05 09:04:44;;;;;;;18.23;7.85;;;12.10;97.80;;;11.38;100.00;101192.06;4967841;28;20070;-68
2023/01/05 09:07:11;;;;;;;17.52;6.68;;;12.10;97.70;;;11.39;100.00;101192.97;4984397;28;20153;-69
2023/01/05 09:09:38;;;;;;;18.13;7.15;;;12.20;97.70;;;11.43;100.00;101192.91;4968001;28;20055;-69
2023/01/05 09:12:06;;;;;;;18.25;6.40;;;12.20;97.50;;;11.42;100.00;101199.06;4968213;28;20062;-68
2023/01/05 09:14:33;;;;;;;13.70;5.20;;;12.20;97.60;;;11.45;100.00;101208.66;4951817;28;20056;-68
2023/01/05 09:17:01;;;;;;;15.18;5.90;;;12.20;97.40;;;11.44;100.00;101199.03;4951887;28;20046;-68
2023/01/05 09:19:33;;;;;;;16.88;5.93;;;12.30;97.40;;;11.43;100.00;101200.81;4952743;28;20042;-68
2023/01/05 09:22:01;;;;;;;15.88;5.10;;;12.30;97.40;;;11.46;100.00;101205.13;4968067;28;20055;-68
2023/01/05 09:24:28;;;;;;;15.88;5.40;;;12.30;97.50;;;11.45;100.00;101206.91;4967178;28;20109;-69
2023/01/05 09:26:56;;;;;;;17.10;6.00;;;12.30;97.30;;;11.46;100.00;101215.69;4952098;28;20047;-69
2023/01/05 09:29:23;;;;;;;12.77;4.68;;;12.20;97.40;;;11.46;100.00;101218.31;4951707;28;20110;-68
2023/01/05 09:31:50;;;;;;;20.90;7.07;;;12.20;97.40;;;11.47;100.00;101213.03;4968049;28;20553;-68
2023/01/05 09:34:17;;;;;;;15.82;5.85;;;12.30;97.50;;;11.47;100.00;101220.06;4982411;28;20065;-69
2023/01/05 09:36:45;;;;;;;23.30;6.45;;;12.30;97.60;;;11.47;100.00;101217.41;4967909;28;20049;-69
2023/01/05 09:39:12;;;;;;;17.20;6.63;;;12.30;97.50;;;11.52;100.00;101227.91;4969402;28;20047;-69
2023/01/05 09:41:51;;;;;;;18.13;4.88;;;12.30;97.60;;;11.49;100.00;101223.56;4967822;28;20054;-69
2023/01/05 09:44:24;;;;;;;11.48;4.80;;;12.30;97.50;;;11.52;100.00;101228.78;4983491;28;20150;-69
2023/01/05 09:46:53;;;;;;;15.32;4.88;;;12.30;97.40;;;11.49;100.00;101237.59;4988178;28;20127;-69
2023/01/05 09:49:23;;;;;;;14.93;5.78;;;12.30;97.50;;;11.52;100.00;101233.16;4987271;28;20120;-69
2023/01/05 09:51:58;;;;;;;17.15;5.85;;;12.30;97.30;;;11.53;100.00;101243.69;4974185;28;20038;-69
2023/01/05 09:54:30;;;;;;;11.90;4.38;;;12.30;97.40;;;11.49;100.00;101250.78;4975997;28;20065;-69
2023/01/05 09:56:58;;;;;;;15.13;4.85;;;12.50;97.50;;;11.50;100.00;101246.38;4992556;28;20096;-69
2023/01/05 09:59:49;;;;;;;14.07;3.92;;;12.30;97.40;;;11.50;100.00;101238.47;4973279;28;20043;-69
2023/01/05 10:02:45;;;;;;;10.38;3.60;;;12.40;97.40;;;11.54;100.00;101240.19;4971078;28;20046;-68
2023/01/05 10:05:14;;;;;;;9.98;4.50;;;12.30;97.50;;;11.58;100.00;101239.22;4972343;28;20051;-69
2023/01/05 10:07:54;;;;;;;14.77;4.45;;;12.40;97.50;;;11.59;100.00;101245.38;4984896;28;20043;-68
2023/01/05 10:14:10;;;;;;;16.58;4.80;;;12.40;97.30;;;11.70;100.00;101242.59;4978992;28;20049;-70
2023/01/05 10:16:42;;;;;;;12.90;3.92;;;13.00;97.30;;;11.71;100.00;101246.97;4963371;28;20061;-71
2023/01/05 10:19:15;;;;;;;16.17;3.80;;;12.50;97.10;;;11.77;100.00;101244.22;4939296;28;20057;-71
2023/01/05 10:22:01;;;;;;;15.43;4.60;;;12.60;97.10;;;11.73;100.00;101239.91;4955014;28;20043;-69
2023/01/05 10:25:03;;;;;;;14.45;4.18;;;12.60;97.10;;;11.71;100.00;101241.69;4970665;28;20535;-68
2023/01/05 10:27:49;;;;;;;12.70;3.83;;;12.60;97.00;;;11.69;100.00;101239.06;4972200;28;20049;-68
2023/01/05 10:30:53;;;;;;;11.75;3.63;;;12.60;97.10;;;11.73;100.00;101232.00;4965815;28;20050;-68
2023/01/05 10:33:51;;;;;;;14.93;4.05;;;12.60;97.10;;;11.70;100.00;101229.41;4952746;28;20039;-69
2023/01/05 10:36:40;;;;;;;13.95;3.85;;;12.50;97.00;;;11.71;100.00;101224.13;4952267;28;20047;-69
2023/01/05 10:40:10;;;;;;;19.13;4.63;;;12.50;97.10;;;11.69;100.00;101238.22;4964786;28;20067;-69
2023/01/05 10:43:05;;;;;;;;;;;12.50;97.00;;;11.72;100.00;101227.63;4971635;28;20054;-70
2023/01/05 10:45:34;;;;;;;17.80;5.10;;;12.50;97.20;;;11.67;100.00;101226.81;5004650;28;19928;-69
2023/01/05 10:48:14;;;;;;;13.57;3.92;;;12.50;97.20;;;11.77;100.00;101225.78;4974109;28;20141;-69
2023/01/05 10:50:44;;;;;;;15.07;5.10;;;13.50;97.60;;;11.78;100.00;101231.03;4989829;28;20104;-69
2023/01/05 10:53:23;;;;;;;15.23;3.90;;;12.50;97.40;;;11.78;100.00;101238.94;4976362;28;20061;-69
2023/01/05 10:55:55;;;;;;;17.95;4.38;;;12.60;97.60;;;11.70;100.00;101229.41;4976339;28;20520;-69
2023/01/05 10:59:04;;;;;;;15.88;3.58;;;12.60;97.50;;;11.77;100.00;101241.59;4992656;28;20042;-68
2023/01/05 11:01:32;;;;;;;12.35;3.92;;;12.50;97.60;;;11.73;100.00;101246.06;4965629;28;20050;-68